Terminal Aerodrome Forecast
Issued by NWS Sterling, VA

Current Version | Previous Version | Graphics & Text | Print | Product List | Glossary On
Versions: 1 2 3 4 5 6 7 8 9 10 11 12 13
000
FTUS41 KLWX 221135
TAFMRB
TAF
KMRB 221135Z 2212/2312 VRB03KT P6SM OVC100
     FM221800 VRB03KT P6SM SCT070
     FM230600 19004KT 3SM BR BKN020=

USA.gov is the U.S. government's official web portal to all federal, state and local government web resources and services.